Ocean Taiga — 3EHZ6 — position and weather

sailwx.info

Track history (hours):
 
Tides and Currents Weather Stations Pressure Air Temp Water Temp Dewpoint Dewpoint Depression Visibility Wind Speed Wind Dir Waves Ship Positions

Ocean Taiga

Last reported at 2018-Feb-17 20:08 UTC. Time now 2018-Feb-19 12:02 UTC.
Position N 14°59' E 119°53'.

Length 120 m; draft 6.1 m.

Type: Cargo ship. MMSI: 372041000.

Date/timePositionNaut miles runAvg speedWind from/ knotsBaromVisibWave heightAir tempDewpointWater temp
2018-Feb-17 20:08N 14°59' E 119°53'44711.7
2018-Feb-16 05:52N 22°26' E 119°53'512.8
2018-Feb-16 05:28N 22°31' E 119°53'612.8
2018-Feb-16 05:00N 22°37' E 119°53'612.3
2018-Feb-16 04:30N 22°43' E 119°53'713.3
2018-Feb-16 04:00N 22°50' E 119°52'2710.4
2018-Feb-16 01:26N 23°16' E 119°53'5 8.7
2018-Feb-16 00:51N 23°21' E 119°51'3 8.6
2018-Feb-16 00:30N 23°24' E 119°51'4 9.0
2018-Feb-16 00:00N 23°29' E 119°50'5 8.9
2018-Feb-15 23:30N 23°33' E 119°51'510.2
2018-Feb-15 23:00N 23°38' E 119°52'611.2
2018-Feb-15 22:30N 23°44' E 119°52'10812.3
2018-Feb-15 13:40N 25°23' E 120°39'213.0
2018-Feb-15 13:30N 25°25' E 120°40'35410.8
2018-Feb-14 04:38N 31°04' E 122°38'0 0.3
2018-Feb-14 04:26N 31°04' E 122°38'0 0.0
2018-Feb-14 03:59N 31°04' E 122°38'4 2.4
2018-Feb-14 02:12N 31°04' E 122°42'210.0
2018-Feb-14 02:00N 31°05' E 122°44'403 8.8
2018-Feb-12 04:04N 33°58' E 129°56'1 9.0
2018-Feb-12 03:56N 33°58' E 129°57'5 9.4
2018-Feb-12 03:26N 33°59' E 130°03'4 9.5
2018-Feb-12 03:00N 34°00' E 130°08'5 9.6
2018-Feb-12 02:30N 34°01' E 130°14'5 9.2
2018-Feb-12 02:00N 34°01' E 130°19'5 9.3
2018-Feb-12 01:31N 34°02' E 130°25'4 8.8
2018-Feb-12 01:01N 34°03' E 130°30'5 9.0
2018-Feb-12 00:30N 34°02' E 130°35'5 8.9
2018-Feb-12 00:00N 34°02' E 130°41'4 8.5
2018-Feb-11 23:31N 34°03' E 130°46'4 8.7
2018-Feb-11 23:00N 34°02' E 130°51'5 9.5
2018-Feb-11 22:31N 33°57' E 130°52'4 7.1
2018-Feb-11 22:00N 33°56' E 130°56'510.1
2018-Feb-11 21:30N 33°58' E 131°02'510.7
2018-Feb-11 21:00N 33°55' E 131°07'611.5
2018-Feb-11 20:30N 33°52' E 131°13'611.6
2018-Feb-11 20:00N 33°50' E 131°20'611.6
2018-Feb-11 19:30N 33°49' E 131°27'611.2
2018-Feb-11 19:00N 33°48' E 131°33'611.1
2018-Feb-11 18:30N 33°47' E 131°40'611.0
2018-Feb-11 18:00N 33°46' E 131°46'611.3
2018-Feb-11 17:30N 33°45' E 131°53'611.4
2018-Feb-11 17:00N 33°43' E 131°60'611.7
2018-Feb-11 16:28N 33°42' E 132°07'611.8
2018-Feb-11 15:59N 33°44' E 132°14'812.5
2018-Feb-11 15:20N 33°46' E 132°23'512.3
2018-Feb-11 14:56N 33°48' E 132°28'512.4
2018-Feb-11 14:30N 33°51' E 132°34'712.7
2018-Feb-11 13:59N 33°56' E 132°39'612.4
2018-Feb-11 13:30N 33°60' E 132°44'  
2018-Feb-08 19:30N 34°25' E 134°20'713.2
2018-Feb-08 19:00N 34°27' E 134°28'2713.4
2018-Feb-08 17:00N 34°37' E 134°58'713.1
2018-Feb-08 16:30N 34°35' E 135°05'713.3
2018-Feb-08 16:00N 34°28' E 135°04'713.4
2018-Feb-08 15:30N 34°22' E 135°01'1312.6
2018-Feb-08 14:30N 34°09' E 134°58'1912.5
2018-Feb-08 13:00N 33°51' E 135°01'15811.4
2018-Feb-07 23:10N 34°12' E 138°11'512.8
2018-Feb-07 22:45N 34°14' E 138°17'513.1
2018-Feb-07 22:20N 34°16' E 138°23'412.8
2018-Feb-07 22:00N 34°18' E 138°28'713.1
2018-Feb-07 21:29N 34°21' E 138°35'  
Track history (hours):
 
Tides and Currents Weather Stations Pressure Air Temp Water Temp Dewpoint Dewpoint Depression Visibility Wind Speed Wind Dir Waves Ship Positions

Ocean Taiga

Last reported at 2018-Feb-17 20:08 UTC. Time now 2018-Feb-19 12:02 UTC.
Position N 14°59' E 119°53'.

Length 120 m; draft 6.1 m.

Type: Cargo ship. MMSI: 372041000.

Date/timePositionNaut miles runAvg speedWind from/ knotsBaromVisibWave heightAir tempDewpointWater temp
2018-Feb-17 20:08N 14°59' E 119°53'44711.7
2018-Feb-16 05:52N 22°26' E 119°53'512.8
2018-Feb-16 05:28N 22°31' E 119°53'612.8
2018-Feb-16 05:00N 22°37' E 119°53'612.3
2018-Feb-16 04:30N 22°43' E 119°53'713.3
2018-Feb-16 04:00N 22°50' E 119°52'2710.4
2018-Feb-16 01:26N 23°16' E 119°53'5 8.7
2018-Feb-16 00:51N 23°21' E 119°51'3 8.6
2018-Feb-16 00:30N 23°24' E 119°51'4 9.0
2018-Feb-16 00:00N 23°29' E 119°50'5 8.9
2018-Feb-15 23:30N 23°33' E 119°51'510.2
2018-Feb-15 23:00N 23°38' E 119°52'611.2
2018-Feb-15 22:30N 23°44' E 119°52'10812.3
2018-Feb-15 13:40N 25°23' E 120°39'213.0
2018-Feb-15 13:30N 25°25' E 120°40'35410.8
2018-Feb-14 04:38N 31°04' E 122°38'0 0.3
2018-Feb-14 04:26N 31°04' E 122°38'0 0.0
2018-Feb-14 03:59N 31°04' E 122°38'4 2.4
2018-Feb-14 02:12N 31°04' E 122°42'210.0
2018-Feb-14 02:00N 31°05' E 122°44'403 8.8
2018-Feb-12 04:04N 33°58' E 129°56'1 9.0
2018-Feb-12 03:56N 33°58' E 129°57'5 9.4
2018-Feb-12 03:26N 33°59' E 130°03'4 9.5
2018-Feb-12 03:00N 34°00' E 130°08'5 9.6
2018-Feb-12 02:30N 34°01' E 130°14'5 9.2
2018-Feb-12 02:00N 34°01' E 130°19'5 9.3
2018-Feb-12 01:31N 34°02' E 130°25'4 8.8
2018-Feb-12 01:01N 34°03' E 130°30'5 9.0
2018-Feb-12 00:30N 34°02' E 130°35'5 8.9
2018-Feb-12 00:00N 34°02' E 130°41'4 8.5
2018-Feb-11 23:31N 34°03' E 130°46'4 8.7
2018-Feb-11 23:00N 34°02' E 130°51'5 9.5
2018-Feb-11 22:31N 33°57' E 130°52'4 7.1
2018-Feb-11 22:00N 33°56' E 130°56'510.1
2018-Feb-11 21:30N 33°58' E 131°02'510.7
2018-Feb-11 21:00N 33°55' E 131°07'611.5
2018-Feb-11 20:30N 33°52' E 131°13'611.6
2018-Feb-11 20:00N 33°50' E 131°20'611.6
2018-Feb-11 19:30N 33°49' E 131°27'611.2
2018-Feb-11 19:00N 33°48' E 131°33'611.1
2018-Feb-11 18:30N 33°47' E 131°40'611.0
2018-Feb-11 18:00N 33°46' E 131°46'611.3
2018-Feb-11 17:30N 33°45' E 131°53'611.4
2018-Feb-11 17:00N 33°43' E 131°60'611.7
2018-Feb-11 16:28N 33°42' E 132°07'611.8
2018-Feb-11 15:59N 33°44' E 132°14'812.5
2018-Feb-11 15:20N 33°46' E 132°23'512.3
2018-Feb-11 14:56N 33°48' E 132°28'512.4
2018-Feb-11 14:30N 33°51' E 132°34'712.7
2018-Feb-11 13:59N 33°56' E 132°39'612.4
2018-Feb-11 13:30N 33°60' E 132°44'  
2018-Feb-08 19:30N 34°25' E 134°20'713.2
2018-Feb-08 19:00N 34°27' E 134°28'2713.4
2018-Feb-08 17:00N 34°37' E 134°58'713.1
2018-Feb-08 16:30N 34°35' E 135°05'713.3
2018-Feb-08 16:00N 34°28' E 135°04'713.4
2018-Feb-08 15:30N 34°22' E 135°01'1312.6
2018-Feb-08 14:30N 34°09' E 134°58'1912.5
2018-Feb-08 13:00N 33°51' E 135°01'15811.4
2018-Feb-07 23:10N 34°12' E 138°11'512.8
2018-Feb-07 22:45N 34°14' E 138°17'513.1
2018-Feb-07 22:20N 34°16' E 138°23'412.8
2018-Feb-07 22:00N 34°18' E 138°28'713.1
2018-Feb-07 21:29N 34°21' E 138°35'  

Dump ship's entire track history